sensor_id;sensor_type;location;lat;lon;timestamp;pressure;altitude;pressure_sealevel;temperature;humidity
25350;BME280;13302;48.796;11.978;2023-05-23T00:02:12;96444.09;;;18.76;37.07
25350;BME280;13302;48.796;11.978;2023-05-23T00:05:01;96429.69;;;18.77;37.20
25350;BME280;13302;48.796;11.978;2023-05-23T00:07:49;96442.03;;;18.80;37.04
25350;BME280;13302;48.796;11.978;2023-05-23T00:10:36;96442.81;;;18.84;36.81
25350;BME280;13302;48.796;11.978;2023-05-23T00:13:23;96446.84;;;18.83;36.96
25350;BME280;13302;48.796;11.978;2023-05-23T00:16:10;96453.63;;;18.82;37.09
25350;BME280;13302;48.796;11.978;2023-05-23T00:18:57;96452.44;;;18.83;36.98
25350;BME280;13302;48.796;11.978;2023-05-23T00:21:46;96447.63;;;18.84;37.06
25350;BME280;13302;48.796;11.978;2023-05-23T00:24:37;96442.81;;;18.84;37.13
25350;BME280;13302;48.796;11.978;2023-05-23T00:27:24;96436.00;;;18.85;36.84
25350;BME280;13302;48.796;11.978;2023-05-23T00:30:11;96439.59;;;18.86;36.90
25350;BME280;13302;48.796;11.978;2023-05-23T00:32:58;96434.78;;;18.86;37.08
25350;BME280;13302;48.796;11.978;2023-05-23T00:35:46;96440.00;;;18.88;36.96
25350;BME280;13302;48.796;11.978;2023-05-23T00:38:34;96442.78;;;18.88;37.12
25350;BME280;13302;48.796;11.978;2023-05-23T00:41:21;96440.34;;;18.90;36.80
25350;BME280;13302;48.796;11.978;2023-05-23T00:44:08;96446.75;;;18.90;36.77
25350;BME280;13302;48.796;11.978;2023-05-23T00:46:56;96448.34;;;18.91;36.89
25350;BME280;13302;48.796;11.978;2023-05-23T00:49:43;96447.16;;;18.92;37.04
25350;BME280;13302;48.796;11.978;2023-05-23T00:52:30;96447.91;;;18.93;36.88
25350;BME280;13302;48.796;11.978;2023-05-23T00:55:17;96452.75;;;18.92;36.88
25350;BME280;13302;48.796;11.978;2023-05-23T00:58:04;96459.56;;;18.91;36.77
25350;BME280;13302;48.796;11.978;2023-05-23T01:00:52;96458.75;;;18.91;37.03
25350;BME280;13302;48.796;11.978;2023-05-23T01:03:40;96459.97;;;18.90;36.65
25350;BME280;13302;48.796;11.978;2023-05-23T01:06:27;96461.16;;;18.89;37.00
25350;BME280;13302;48.796;11.978;2023-05-23T01:09:16;96453.19;;;18.87;36.98
25350;BME280;13302;48.796;11.978;2023-05-23T01:15:08;96464.44;;;18.84;36.84
25350;BME280;13302;48.796;11.978;2023-05-23T01:18:09;96453.63;;;18.82;36.97
25350;BME280;13302;48.796;11.978;2023-05-23T01:21:20;96460.44;;;18.81;37.09
25350;BME280;13302;48.796;11.978;2023-05-23T01:24:46;96460.06;;;18.79;36.90
25350;BME280;13302;48.796;11.978;2023-05-23T01:28:01;96457.31;;;18.75;37.07
25350;BME280;13302;48.796;11.978;2023-05-23T01:30:51;96475.31;;;18.74;36.92
25350;BME280;13302;48.796;11.978;2023-05-23T01:33:39;96471.72;;;18.74;37.16
25350;BME280;13302;48.796;11.978;2023-05-23T01:36:27;96470.91;;;18.73;36.94
25350;BME280;13302;48.796;11.978;2023-05-23T01:39:14;96468.53;;;18.72;36.96
25350;BME280;13302;48.796;11.978;2023-05-23T01:42:01;96474.56;;;18.70;37.11
25350;BME280;13302;48.796;11.978;2023-05-23T01:44:48;96482.16;;;18.70;37.38
25350;BME280;13302;48.796;11.978;2023-05-23T01:47:37;96482.56;;;18.68;37.27
25350;BME280;13302;48.796;11.978;2023-05-23T01:50:26;96479.75;;;18.68;37.10
25350;BME280;13302;48.796;11.978;2023-05-23T01:53:15;96480.19;;;18.67;37.24
25350;BME280;13302;48.796;11.978;2023-05-23T01:56:03;96482.19;;;18.66;37.07
25350;BME280;13302;48.796;11.978;2023-05-23T01:58:50;96475.78;;;18.66;37.46
25350;BME280;13302;48.796;11.978;2023-05-23T02:01:37;96479.41;;;18.66;37.46
25350;BME280;13302;48.796;11.978;2023-05-23T02:04:27;96481.41;;;18.66;37.22
25350;BME280;13302;48.796;11.978;2023-05-23T02:07:14;96484.56;;;18.68;37.45
25350;BME280;13302;48.796;11.978;2023-05-23T02:10:02;96479.75;;;18.68;37.48
25350;BME280;13302;48.796;11.978;2023-05-23T02:12:50;96477.34;;;18.70;37.22
25350;BME280;13302;48.796;11.978;2023-05-23T02:15:37;96484.16;;;18.69;37.63
25350;BME280;13302;48.796;11.978;2023-05-23T02:18:24;96474.56;;;18.70;37.56
25350;BME280;13302;48.796;11.978;2023-05-23T02:21:12;96472.97;;;18.69;37.20
25350;BME280;13302;48.796;11.978;2023-05-23T02:23:59;96479.75;;;18.68;37.41
25350;BME280;13302;48.796;11.978;2023-05-23T02:26:46;96478.19;;;18.67;37.46
25350;BME280;13302;48.796;11.978;2023-05-23T02:29:33;96483.41;;;18.65;37.51
25350;BME280;13302;48.796;11.978;2023-05-23T02:32:20;96479.78;;;18.65;37.66
25350;BME280;13302;48.796;11.978;2023-05-23T02:35:07;96483.41;;;18.65;37.57
25350;BME280;13302;48.796;11.978;2023-05-23T02:37:54;96487.03;;;18.62;37.61
25350;BME280;13302;48.796;11.978;2023-05-23T02:40:41;96492.63;;;18.62;37.66
25350;BME280;13302;48.796;11.978;2023-05-23T02:43:28;96495.44;;;18.62;37.76
25350;BME280;13302;48.796;11.978;2023-05-23T02:46:15;96490.19;;;18.64;37.63
25350;BME280;13302;48.796;11.978;2023-05-23T02:49:02;96491.44;;;18.63;37.72
25350;BME280;13302;48.796;11.978;2023-05-23T02:51:49;96486.59;;;18.64;37.63
25350;BME280;13302;48.796;11.978;2023-05-23T02:54:37;96485.84;;;18.63;37.59
25350;BME280;13302;48.796;11.978;2023-05-23T02:57:24;96492.63;;;18.62;37.65
25350;BME280;13302;48.796;11.978;2023-05-23T03:00:12;96491.03;;;18.61;37.67
25350;BME280;13302;48.796;11.978;2023-05-23T03:03:00;96481.03;;;18.60;37.45
25350;BME280;13302;48.796;11.978;2023-05-23T03:05:48;96483.84;;;18.60;37.62
25350;BME280;13302;48.796;11.978;2023-05-23T03:08:35;96483.84;;;18.60;37.59
25350;BME280;13302;48.796;11.978;2023-05-23T03:11:22;96483.84;;;18.60;37.83
25350;BME280;13302;48.796;11.978;2023-05-23T03:14:10;96477.44;;;18.60;37.83
25350;BME280;13302;48.796;11.978;2023-05-23T03:16:57;96476.22;;;18.61;37.44
25350;BME280;13302;48.796;11.978;2023-05-23T03:19:44;96476.22;;;18.61;37.73
25350;BME280;13302;48.796;11.978;2023-05-23T03:22:31;96472.63;;;18.60;37.53
25350;BME280;13302;48.796;11.978;2023-05-23T03:25:18;96475.44;;;18.60;37.90
25350;BME280;13302;48.796;11.978;2023-05-23T03:28:06;96476.66;;;18.59;37.75
25350;BME280;13302;48.796;11.978;2023-05-23T03:30:53;96476.66;;;18.59;37.86
25350;BME280;13302;48.796;11.978;2023-05-23T03:33:40;96475.88;;;18.59;37.72
25350;BME280;13302;48.796;11.978;2023-05-23T03:36:29;96477.06;;;18.58;37.66
25350;BME280;13302;48.796;11.978;2023-05-23T03:39:19;96475.06;;;18.58;37.90
25350;BME280;13302;48.796;11.978;2023-05-23T03:42:06;96475.88;;;18.59;37.86
25350;BME280;13302;48.796;11.978;2023-05-23T03:44:53;96489.44;;;18.60;37.79
25350;BME280;13302;48.796;11.978;2023-05-23T03:47:41;96479.47;;;18.59;37.72
25350;BME280;13302;48.796;11.978;2023-05-23T03:50:29;96479.47;;;18.59;37.83
25350;BME280;13302;48.796;11.978;2023-05-23T03:53:16;96481.88;;;18.57;37.96
25350;BME280;13302;48.796;11.978;2023-05-23T03:56:04;96485.88;;;18.56;37.90
25350;BME280;13302;48.796;11.978;2023-05-23T03:58:51;96484.28;;;18.55;38.04
25350;BME280;13302;48.796;11.978;2023-05-23T04:01:38;96493.91;;;18.54;37.98
25350;BME280;13302;48.796;11.978;2023-05-23T04:04:28;96480.31;;;18.53;37.86
25350;BME280;13302;48.796;11.978;2023-05-23T04:07:16;96493.47;;;18.52;38.04
25350;BME280;13302;48.796;11.978;2023-05-23T04:10:04;96488.31;;;18.51;37.88
25350;BME280;13302;48.796;11.978;2023-05-23T04:12:51;96488.72;;;18.49;38.08
25350;BME280;13302;48.796;11.978;2023-05-23T04:15:39;96493.91;;;18.47;38.26
25350;BME280;13302;48.796;11.978;2023-05-23T04:18:31;96495.94;;;18.47;38.00
25350;BME280;13302;48.796;11.978;2023-05-23T04:21:19;96507.91;;;18.47;37.96
25350;BME280;13302;48.796;11.978;2023-05-23T04:24:16;96502.72;;;18.46;38.28
25350;BME280;13302;48.796;11.978;2023-05-23T04:27:03;96501.13;;;18.45;38.03
25350;BME280;13302;48.796;11.978;2023-05-23T04:29:50;96500.34;;;18.44;38.26
25350;BME280;13302;48.796;11.978;2023-05-23T04:32:38;96509.53;;;18.45;38.21
25350;BME280;13302;48.796;11.978;2023-05-23T04:35:26;96503.13;;;18.44;38.56
25350;BME280;13302;48.796;11.978;2023-05-23T04:38:14;96502.75;;;18.42;38.49
25350;BME280;13302;48.796;11.978;2023-05-23T04:41:01;96496.75;;;18.40;38.32
25350;BME280;13302;48.796;11.978;2023-05-23T04:43:55;96497.19;;;18.39;38.54
25350;BME280;13302;48.796;11.978;2023-05-23T04:46:47;96501.19;;;18.38;38.82
25350;BME280;13302;48.796;11.978;2023-05-23T04:49:42;96520.38;;;18.35;38.62
25350;BME280;13302;48.796;11.978;2023-05-23T04:52:30;96531.56;;;18.35;38.85
25350;BME280;13302;48.796;11.978;2023-05-23T04:55:19;96525.97;;;18.35;38.92
25350;BME280;13302;48.796;11.978;2023-05-23T04:58:07;96530.78;;;18.35;38.92
25350;BME280;13302;48.796;11.978;2023-05-23T05:00:55;96529.59;;;18.36;38.74
25350;BME280;13302;48.796;11.978;2023-05-23T05:03:43;96531.56;;;18.35;38.91
25350;BME280;13302;48.796;11.978;2023-05-23T05:06:30;96531.97;;;18.38;38.96
25350;BME280;13302;48.796;11.978;2023-05-23T05:09:17;96531.19;;;18.37;39.19
25350;BME280;13302;48.796;11.978;2023-05-23T05:12:05;96533.97;;;18.37;39.12
25350;BME280;13302;48.796;11.978;2023-05-23T05:14:52;96531.97;;;18.38;39.49
25350;BME280;13302;48.796;11.978;2023-05-23T05:17:39;96533.97;;;18.37;39.30
25350;BME280;13302;48.796;11.978;2023-05-23T05:20:30;96534.34;;;18.39;39.66
25350;BME280;13302;48.796;11.978;2023-05-23T05:23:17;96538.78;;;18.36;39.44
25350;BME280;13302;48.796;11.978;2023-05-23T05:26:05;96531.56;;;18.39;39.86
25350;BME280;13302;48.796;11.978;2023-05-23T05:28:52;96539.94;;;18.39;39.77
25350;BME280;13302;48.796;11.978;2023-05-23T05:31:40;96542.75;;;18.39;39.74
25350;BME280;13302;48.796;11.978;2023-05-23T05:34:28;96539.56;;;18.41;39.79
25350;BME280;13302;48.796;11.978;2023-05-23T05:37:15;96540.75;;;18.40;40.03
25350;BME280;13302;48.796;11.978;2023-05-23T05:40:04;96554.34;;;18.41;40.05
25350;BME280;13302;48.796;11.978;2023-05-23T05:42:55;96546.31;;;18.43;39.99
25350;BME280;13302;48.796;11.978;2023-05-23T05:45:43;96550.31;;;18.46;39.86
25350;BME280;13302;48.796;11.978;2023-05-23T05:48:30;96555.47;;;18.47;39.71
25350;BME280;13302;48.796;11.978;2023-05-23T05:51:21;96561.47;;;18.49;39.97
25350;BME280;13302;48.796;11.978;2023-05-23T05:54:08;96562.28;;;18.50;39.79
25350;BME280;13302;48.796;11.978;2023-05-23T05:56:55;96558.69;;;18.53;40.08
25350;BME280;13302;48.796;11.978;2023-05-23T05:59:43;96563.88;;;18.54;39.90
25350;BME280;13302;48.796;11.978;2023-05-23T06:02:31;96566.69;;;18.54;39.83
25350;BME280;13302;48.796;11.978;2023-05-23T06:05:18;96563.44;;;18.56;39.78
25350;BME280;13302;48.796;11.978;2023-05-23T06:08:06;96564.25;;;18.56;39.89
25350;BME280;13302;48.796;11.978;2023-05-23T06:10:53;96572.66;;;18.56;39.98
25350;BME280;13302;48.796;11.978;2023-05-23T06:13:44;96577.06;;;18.57;39.65
25350;BME280;13302;48.796;11.978;2023-05-23T06:16:31;96574.25;;;18.57;39.70
25350;BME280;13302;48.796;11.978;2023-05-23T06:19:18;96577.44;;;18.56;39.99
25350;BME280;13302;48.796;11.978;2023-05-23T06:22:06;96569.84;;;18.56;39.96
25350;BME280;13302;48.796;11.978;2023-05-23T06:24:53;96566.69;;;18.54;39.89
25350;BME280;13302;48.796;11.978;2023-05-23T06:27:39;96577.06;;;18.57;40.14
25350;BME280;13302;48.796;11.978;2023-05-23T06:30:27;96581.41;;;18.62;40.16
25350;BME280;13302;48.796;11.978;2023-05-23T06:33:15;96581.41;;;18.62;40.13
25350;BME280;13302;48.796;11.978;2023-05-23T06:36:03;96585.41;;;18.64;40.13
25350;BME280;13302;48.796;11.978;2023-05-23T06:38:51;96583.00;;;18.66;40.23
25350;BME280;13302;48.796;11.978;2023-05-23T06:41:38;96590.56;;;18.69;40.16
25350;BME280;13302;48.796;11.978;2023-05-23T06:44:25;96589.72;;;18.72;40.36
25350;BME280;13302;48.796;11.978;2023-05-23T06:47:13;96594.09;;;18.77;40.39
25350;BME280;13302;48.796;11.978;2023-05-23T06:50:01;96598.47;;;18.81;40.31
25350;BME280;13302;48.796;11.978;2023-05-23T06:52:48;96593.63;;;18.86;40.39
25350;BME280;13302;48.796;11.978;2023-05-23T06:55:35;96590.00;;;18.89;40.35
25350;BME280;13302;48.796;11.978;2023-05-23T06:58:24;96599.16;;;18.93;40.28
25350;BME280;13302;48.796;11.978;2023-05-23T07:01:15;96594.78;;;18.95;40.24
25350;BME280;13302;48.796;11.978;2023-05-23T07:04:06;96607.94;;;18.98;40.46
25350;BME280;13302;48.796;11.978;2023-05-23T07:06:53;96602.31;;;19.02;40.50
25350;BME280;13302;48.796;11.978;2023-05-23T07:09:41;96612.31;;;19.03;40.33
25350;BME280;13302;48.796;11.978;2023-05-23T07:12:32;96606.72;;;19.03;40.27
25350;BME280;13302;48.796;11.978;2023-05-23T07:15:20;96613.47;;;19.05;40.44
25350;BME280;13302;48.796;11.978;2023-05-23T07:18:22;96618.69;;;19.07;40.31
25350;BME280;13302;48.796;11.978;2023-05-23T07:21:10;96611.88;;;19.08;40.20
25350;BME280;13302;48.796;11.978;2023-05-23T07:23:57;96620.66;;;19.10;39.93
25350;BME280;13302;48.796;11.978;2023-05-23T07:26:44;96618.28;;;19.08;40.05
25350;BME280;13302;48.796;11.978;2023-05-23T07:29:32;96621.44;;;19.10;40.08
25350;BME280;13302;48.796;11.978;2023-05-23T07:32:19;96611.03;;;19.11;40.00
25350;BME280;13302;48.796;11.978;2023-05-23T07:35:07;96623.06;;;19.11;39.84
25350;BME280;13302;48.796;11.978;2023-05-23T07:37:54;96614.25;;;19.09;39.75
25350;BME280;13302;48.796;11.978;2023-05-23T07:40:41;96622.25;;;19.11;39.99
25350;BME280;13302;48.796;11.978;2023-05-23T07:43:30;96625.06;;;19.11;39.82
25350;BME280;13302;48.796;11.978;2023-05-23T07:46:17;96632.25;;;19.12;40.06
25350;BME280;13302;48.796;11.978;2023-05-23T07:49:04;96627.84;;;19.11;39.77
25350;BME280;13302;48.796;11.978;2023-05-23T07:51:51;96636.63;;;19.13;40.05
25350;BME280;13302;48.796;11.978;2023-05-23T07:54:38;96631.41;;;19.15;40.04
25350;BME280;13302;48.796;11.978;2023-05-23T07:57:26;96629.41;;;19.15;39.97
25350;BME280;13302;48.796;11.978;2023-05-23T08:00:14;96629.00;;;19.17;39.90
25350;BME280;13302;48.796;11.978;2023-05-23T08:03:02;96625.78;;;19.18;39.77
25350;BME280;13302;48.796;11.978;2023-05-23T08:05:55;96629.81;;;19.21;39.95
25350;BME280;13302;48.796;11.978;2023-05-23T08:08:43;96626.16;;;19.24;39.94
25350;BME280;13302;48.796;11.978;2023-05-23T08:11:30;96628.94;;;19.27;40.08
25350;BME280;13302;48.796;11.978;2023-05-23T08:14:17;96624.50;;;19.30;39.75
25350;BME280;13302;48.796;11.978;2023-05-23T08:17:24;96629.31;;;19.33;39.71
25350;BME280;13302;48.796;11.978;2023-05-23T08:20:12;96622.84;;;19.36;39.67
25350;BME280;13302;48.796;11.978;2023-05-23T08:23:00;96630.06;;;19.37;39.78
25350;BME280;13302;48.796;11.978;2023-05-23T08:25:48;96639.63;;;19.40;39.42
25350;BME280;13302;48.796;11.978;2023-05-23T08:28:36;96630.03;;;19.41;39.60
25350;BME280;13302;48.796;11.978;2023-05-23T08:31:23;96634.84;;;19.40;39.38
25350;BME280;13302;48.796;11.978;2023-05-23T08:34:10;96641.25;;;19.41;39.50
25350;BME280;13302;48.796;11.978;2023-05-23T08:36:58;96642.03;;;19.41;39.22
25350;BME280;13302;48.796;11.978;2023-05-23T08:39:46;96647.66;;;19.41;39.44
25350;BME280;13302;48.796;11.978;2023-05-23T08:42:46;96644.81;;;19.45;39.08
25350;BME280;13302;48.796;11.978;2023-05-23T08:45:34;96651.56;;;19.47;39.15
25350;BME280;13302;48.796;11.978;2023-05-23T08:48:23;96651.16;;;19.49;39.19
25350;BME280;13302;48.796;11.978;2023-05-23T08:51:14;96649.16;;;19.49;39.25
25350;BME280;13302;48.796;11.978;2023-05-23T08:54:04;96652.72;;;19.53;39.28
25350;BME280;13302;48.796;11.978;2023-05-23T08:56:52;96655.09;;;19.55;39.47
25350;BME280;13302;48.796;11.978;2023-05-23T08:59:40;96671.88;;;19.58;39.09
25350;BME280;13302;48.796;11.978;2023-05-23T09:02:27;96662.66;;;19.61;39.13
25350;BME280;13302;48.796;11.978;2023-05-23T09:05:25;96667.44;;;19.64;39.11
25350;BME280;13302;48.796;11.978;2023-05-23T09:08:13;96671.00;;;19.68;39.03
25350;BME280;13302;48.796;11.978;2023-05-23T09:11:02;96660.94;;;19.71;38.96
25350;BME280;13302;48.796;11.978;2023-05-23T09:13:52;96669.75;;;19.73;39.01
25350;BME280;13302;48.796;11.978;2023-05-23T09:16:45;96673.38;;;19.73;38.84
25350;BME280;13302;48.796;11.978;2023-05-23T09:19:39;96665.31;;;19.76;38.92
25350;BME280;13302;48.796;11.978;2023-05-23T09:22:38;96664.88;;;19.81;38.75
25350;BME280;13302;48.796;11.978;2023-05-23T09:25:31;96673.66;;;19.83;38.93
25350;BME280;13302;48.796;11.978;2023-05-23T09:28:18;96664.84;;;19.84;39.00
25350;BME280;13302;48.796;11.978;2023-05-23T09:31:07;96666.06;;;19.87;38.98
25350;BME280;13302;48.796;11.978;2023-05-23T09:33:54;96664.41;;;19.89;38.39
25350;BME280;13302;48.796;11.978;2023-05-23T09:36:41;96661.19;;;19.91;38.60
25350;BME280;13302;48.796;11.978;2023-05-23T09:39:30;96654.34;;;19.92;38.17
25350;BME280;13302;48.796;11.978;2023-05-23T09:42:19;96663.56;;;19.92;38.28
25350;BME280;13302;48.796;11.978;2023-05-23T09:45:07;96664.75;;;19.95;38.46
25350;BME280;13302;48.796;11.978;2023-05-23T09:47:55;96668.72;;;19.97;38.24
25350;BME280;13302;48.796;11.978;2023-05-23T09:50:44;96670.78;;;19.93;38.06
25350;BME280;13302;48.796;11.978;2023-05-23T09:53:31;96671.13;;;19.95;37.64
25350;BME280;13302;48.796;11.978;2023-05-23T09:56:19;96675.53;;;19.96;37.70
25350;BME280;13302;48.796;11.978;2023-05-23T09:59:06;96679.53;;;19.99;37.71
25350;BME280;13302;48.796;11.978;2023-05-23T10:01:56;96678.31;;;20.00;37.51
25350;BME280;13302;48.796;11.978;2023-05-23T10:04:43;96683.50;;;20.01;37.68
25350;BME280;13302;48.796;11.978;2023-05-23T10:07:30;96679.09;;;20.00;37.54
25350;BME280;13302;48.796;11.978;2023-05-23T10:10:19;96688.72;;;20.03;37.73
25350;BME280;13302;48.796;11.978;2023-05-23T10:13:06;96677.84;;;20.05;37.54
25350;BME280;13302;48.796;11.978;2023-05-23T10:15:58;96676.66;;;20.06;37.48
25350;BME280;13302;48.796;11.978;2023-05-23T10:18:52;96671.41;;;20.08;37.77
25350;BME280;13302;48.796;11.978;2023-05-23T10:21:50;96670.19;;;20.09;37.45
25350;BME280;13302;48.796;11.978;2023-05-23T10:24:41;96674.59;;;20.10;37.47
25350;BME280;13302;48.796;11.978;2023-05-23T10:27:31;96668.53;;;20.11;37.41
25350;BME280;13302;48.796;11.978;2023-05-23T10:30:18;96669.34;;;20.12;37.12
25350;BME280;13302;48.796;11.978;2023-05-23T10:33:06;96663.31;;;20.13;37.27
25350;BME280;13302;48.796;11.978;2023-05-23T10:36:18;96657.72;;;20.13;37.42
25350;BME280;13302;48.796;11.978;2023-05-23T10:39:14;96658.88;;;20.16;37.45
25350;BME280;13302;48.796;11.978;2023-05-23T10:42:08;96662.06;;;20.18;37.34
25350;BME280;13302;48.796;11.978;2023-05-23T10:45:20;96663.66;;;20.19;37.18
25350;BME280;13302;48.796;11.978;2023-05-23T10:48:21;96661.66;;;20.20;37.08
25350;BME280;13302;48.796;11.978;2023-05-23T10:51:11;96657.22;;;20.22;36.91
25350;BME280;13302;48.796;11.978;2023-05-23T10:54:00;96658.38;;;20.25;37.01
25350;BME280;13302;48.796;11.978;2023-05-23T10:57:02;96646.72;;;20.26;37.12
25350;BME280;13302;48.796;11.978;2023-05-23T10:59:49;96647.47;;;20.30;37.26
25350;BME280;13302;48.796;11.978;2023-05-23T11:02:37;96657.06;;;20.33;37.08
25350;BME280;13302;48.796;11.978;2023-05-23T11:05:27;96663.06;;;20.35;37.00
25350;BME280;13302;48.796;11.978;2023-05-23T11:08:19;96661.41;;;20.37;36.77
25350;BME280;13302;48.796;11.978;2023-05-23T11:11:06;96656.19;;;20.39;36.84
25350;BME280;13302;48.796;11.978;2023-05-23T11:13:54;96654.53;;;20.42;36.51
25350;BME280;13302;48.796;11.978;2023-05-23T11:16:43;96652.91;;;20.44;36.86
25350;BME280;13302;48.796;11.978;2023-05-23T11:19:32;96654.13;;;20.47;36.97
25350;BME280;13302;48.796;11.978;2023-05-23T11:22:19;96641.22;;;20.49;36.84
25350;BME280;13302;48.796;11.978;2023-05-23T11:25:08;96658.88;;;20.50;36.65
25350;BME280;13302;48.796;11.978;2023-05-23T11:27:58;96643.63;;;20.51;36.51
25350;BME280;13302;48.796;11.978;2023-05-23T11:30:48;96655.72;;;20.48;36.70
25350;BME280;13302;48.796;11.978;2023-05-23T11:33:36;96651.31;;;20.47;36.45
25350;BME280;13302;48.796;11.978;2023-05-23T11:36:23;96657.31;;;20.45;36.63
25350;BME280;13302;48.796;11.978;2023-05-23T11:39:12;96660.09;;;20.45;36.59
25350;BME280;13302;48.796;11.978;2023-05-23T11:42:02;96656.50;;;20.45;36.36
25350;BME280;13302;48.796;11.978;2023-05-23T11:44:50;96662.91;;;20.45;36.27
25350;BME280;13302;48.796;11.978;2023-05-23T11:47:40;96655.34;;;20.42;36.07
25350;BME280;13302;48.796;11.978;2023-05-23T11:50:27;96659.34;;;20.41;35.91
25350;BME280;13302;48.796;11.978;2023-05-23T11:53:15;96652.53;;;20.42;35.95
25350;BME280;13302;48.796;11.978;2023-05-23T11:56:04;96656.50;;;20.45;36.11
25350;BME280;13302;48.796;11.978;2023-05-23T11:58:54;96662.53;;;20.47;35.89
25350;BME280;13302;48.796;11.978;2023-05-23T12:01:43;96662.09;;;20.48;35.67
25350;BME280;13302;48.796;11.978;2023-05-23T12:04:30;96668.50;;;20.52;35.62
25350;BME280;13302;48.796;11.978;2023-05-23T12:07:20;96672.88;;;20.53;35.63
25350;BME280;13302;48.796;11.978;2023-05-23T12:10:09;96680.88;;;20.55;35.44
25350;BME280;13302;48.796;11.978;2023-05-23T12:12:56;96675.63;;;20.57;35.47
25350;BME280;13302;48.796;11.978;2023-05-23T12:15:43;96678.03;;;20.58;35.63
25350;BME280;13302;48.796;11.978;2023-05-23T12:18:31;96678.41;;;20.60;35.84
25350;BME280;13302;48.796;11.978;2023-05-23T12:21:18;96664.38;;;20.60;35.54
25350;BME280;13302;48.796;11.978;2023-05-23T12:24:20;96672.00;;;20.60;35.78
25350;BME280;13302;48.796;11.978;2023-05-23T12:27:08;96676.75;;;20.63;35.29
25350;BME280;13302;48.796;11.978;2023-05-23T12:32:53;96672.31;;;20.66;35.27
25350;BME280;13302;48.796;11.978;2023-05-23T12:35:43;96674.31;;;20.65;35.23
25350;BME280;13302;48.796;11.978;2023-05-23T12:38:33;96671.88;;;20.67;34.92
25350;BME280;13302;48.796;11.978;2023-05-23T12:41:23;96667.88;;;20.68;35.05
25350;BME280;13302;48.796;11.978;2023-05-23T12:44:14;96666.22;;;20.71;34.99
25350;BME280;13302;48.796;11.978;2023-05-23T12:47:03;96673.00;;;20.73;34.87
25350;BME280;13302;48.796;11.978;2023-05-23T12:49:50;96668.97;;;20.74;34.83
25350;BME280;13302;48.796;11.978;2023-05-23T12:52:37;96674.19;;;20.76;34.78
25350;BME280;13302;48.796;11.978;2023-05-23T12:55:24;96660.94;;;20.76;34.47
25350;BME280;13302;48.796;11.978;2023-05-23T12:58:11;96665.31;;;20.77;34.59
25350;BME280;13302;48.796;11.978;2023-05-23T13:00:58;96664.09;;;20.78;34.66
25350;BME280;13302;48.796;11.978;2023-05-23T13:03:47;96666.50;;;20.80;34.53
25350;BME280;13302;48.796;11.978;2023-05-23T13:06:34;96669.31;;;20.80;34.61
25350;BME280;13302;48.796;11.978;2023-05-23T13:09:21;96664.84;;;20.82;34.63
25350;BME280;13302;48.796;11.978;2023-05-23T13:12:09;96666.06;;;20.81;34.47
25350;BME280;13302;48.796;11.978;2023-05-23T13:14:56;96670.03;;;20.84;34.41
25350;BME280;13302;48.796;11.978;2023-05-23T13:17:44;96670.84;;;20.84;34.31
25350;BME280;13302;48.796;11.978;2023-05-23T13:20:36;96672.00;;;20.87;33.93
25350;BME280;13302;48.796;11.978;2023-05-23T13:23:23;96672.38;;;20.89;34.17
25350;BME280;13302;48.796;11.978;2023-05-23T13:26:11;96666.75;;;20.89;33.91
25350;BME280;13302;48.796;11.978;2023-05-23T13:29:00;96677.56;;;20.90;33.86
25350;BME280;13302;48.796;11.978;2023-05-23T13:31:47;96677.56;;;20.90;34.00
25350;BME280;13302;48.796;11.978;2023-05-23T13:34:34;96666.75;;;20.89;33.83
25350;BME280;13302;48.796;11.978;2023-05-23T13:37:23;96676.41;;;20.88;33.86
25350;BME280;13302;48.796;11.978;2023-05-23T13:40:19;96676.47;;;20.84;33.85
25350;BME280;13302;48.796;11.978;2023-05-23T13:43:06;96684.09;;;20.84;33.55
25350;BME280;13302;48.796;11.978;2023-05-23T13:45:53;96672.84;;;20.84;33.36
25350;BME280;13302;48.796;11.978;2023-05-23T13:48:40;96681.69;;;20.82;33.54
25350;BME280;13302;48.796;11.978;2023-05-23T13:51:27;96686.50;;;20.82;33.55
25350;BME280;13302;48.796;11.978;2023-05-23T13:54:14;96676.06;;;20.82;33.27
25350;BME280;13302;48.796;11.978;2023-05-23T13:57:02;96678.88;;;20.82;33.27
25350;BME280;13302;48.796;11.978;2023-05-23T13:59:49;96696.94;;;20.81;33.27
25350;BME280;13302;48.796;11.978;2023-05-23T14:02:36;96696.94;;;20.81;33.28
25350;BME280;13302;48.796;11.978;2023-05-23T14:05:23;96697.81;;;20.78;33.28
25350;BME280;13302;48.796;11.978;2023-05-23T14:08:10;96697.81;;;20.78;32.91
25350;BME280;13302;48.796;11.978;2023-05-23T14:10:59;96687.44;;;20.75;32.55
25350;BME280;13302;48.796;11.978;2023-05-23T14:13:46;96698.66;;;20.75;32.42
25350;BME280;13302;48.796;11.978;2023-05-23T14:16:33;96700.72;;;20.71;32.15
25350;BME280;13302;48.796;11.978;2023-05-23T14:19:21;96707.19;;;20.68;32.27
25350;BME280;13302;48.796;11.978;2023-05-23T14:22:08;96701.19;;;20.66;32.17
25350;BME280;13302;48.796;11.978;2023-05-23T14:24:56;96692.41;;;20.64;32.03
25350;BME280;13302;48.796;11.978;2023-05-23T14:27:44;96700.03;;;20.63;31.81
25350;BME280;13302;48.796;11.978;2023-05-23T14:30:31;96696.84;;;20.61;31.83
25350;BME280;13302;48.796;11.978;2023-05-23T14:33:18;96698.06;;;20.60;31.97
25350;BME280;13302;48.796;11.978;2023-05-23T14:36:05;96708.50;;;20.60;31.79
25350;BME280;13302;48.796;11.978;2023-05-23T14:38:53;96704.91;;;20.59;31.71
25350;BME280;13302;48.796;11.978;2023-05-23T14:41:40;96699.28;;;20.59;31.68
25350;BME280;13302;48.796;11.978;2023-05-23T14:44:27;96695.25;;;20.60;31.49
25350;BME280;13302;48.796;11.978;2023-05-23T14:47:14;96696.47;;;20.59;31.26
25350;BME280;13302;48.796;11.978;2023-05-23T14:50:02;96698.47;;;20.59;31.61